Airport View

Enter AWOS ICAO identifier for current METAR.

ex. KFNL

K06D 290435Z AUTO 25009KT 10SM OVC070 10/06 A2991 RMK AO2

29 Sep 2020 04:35

Frequency: 118.125

Phone: 701-477-0055

Other Area AWOS: K9D7 - KRUG - CWPO - KD55

TAF KDVL 282333Z 2900/2924 33010KT P6SM BKN200 FM290600 29006KT P6SM OVC070 FM291400 31015G23KT P6SM SCT100